sensor_id;sensor_type;location;lat;lon;timestamp;pressure;altitude;pressure_sealevel;temperature;humidity
46456;BME280;32154;47.160;8.120;2022-08-19T00:03:09;95495.94;;;22.28;70.02
46456;BME280;32154;47.160;8.120;2022-08-19T00:08:11;95496.81;;;22.15;69.69
46456;BME280;32154;47.160;8.120;2022-08-19T00:13:14;95510.94;;;21.90;70.98
46456;BME280;32154;47.160;8.120;2022-08-19T00:18:16;95513.41;;;21.98;71.98
46456;BME280;32154;47.160;8.120;2022-08-19T00:23:19;95517.09;;;21.97;72.09
46456;BME280;32154;47.160;8.120;2022-08-19T00:28:22;95523.13;;;22.52;69.51
46456;BME280;32154;47.160;8.120;2022-08-19T00:33:43;95521.06;;;22.40;70.42
46456;BME280;32154;47.160;8.120;2022-08-19T00:38:46;95525.97;;;22.64;69.33
46456;BME280;32154;47.160;8.120;2022-08-19T00:44:14;95510.31;;;22.40;69.49
46456;BME280;32154;47.160;8.120;2022-08-19T00:49:31;95500.06;;;22.30;69.23
46456;BME280;32154;47.160;8.120;2022-08-19T00:54:38;95503.28;;;22.00;70.04
46456;BME280;32154;47.160;8.120;2022-08-19T00:59:46;95495.22;;;22.00;70.47
46456;BME280;32154;47.160;8.120;2022-08-19T01:05:10;95499.94;;;22.12;70.56
46456;BME280;32154;47.160;8.120;2022-08-19T01:10:17;95498.28;;;22.11;71.12
46456;BME280;32154;47.160;8.120;2022-08-19T01:15:27;95498.53;;;21.96;71.77
46456;BME280;32154;47.160;8.120;2022-08-19T01:20:31;95504.53;;;21.91;70.38
46456;BME280;32154;47.160;8.120;2022-08-19T01:25:51;95493.59;;;21.99;70.91
46456;BME280;32154;47.160;8.120;2022-08-19T01:30:58;95496.53;;;21.78;72.06
46456;BME280;32154;47.160;8.120;2022-08-19T01:36:06;95495.88;;;21.89;71.45
46456;BME280;32154;47.160;8.120;2022-08-19T01:41:27;95495.69;;;21.77;71.42
46456;BME280;32154;47.160;8.120;2022-08-19T01:46:30;95499.63;;;21.74;71.69
46456;BME280;32154;47.160;8.120;2022-08-19T01:51:53;95499.19;;;21.84;72.42
46456;BME280;32154;47.160;8.120;2022-08-19T01:57:03;95497.97;;;21.87;70.40
46456;BME280;32154;47.160;8.120;2022-08-19T02:02:14;95493.03;;;21.70;71.33
46456;BME280;32154;47.160;8.120;2022-08-19T02:07:36;95481.59;;;21.95;71.60
46456;BME280;32154;47.160;8.120;2022-08-19T02:12:42;95479.56;;;21.84;70.55
46456;BME280;32154;47.160;8.120;2022-08-19T02:17:46;95465.47;;;22.02;70.88
46456;BME280;32154;47.160;8.120;2022-08-19T02:23:15;95476.56;;;22.19;69.09
46456;BME280;32154;47.160;8.120;2022-08-19T02:28:19;95478.97;;;21.75;70.08
46456;BME280;32154;47.160;8.120;2022-08-19T02:33:23;95480.63;;;21.62;71.10
46456;BME280;32154;47.160;8.120;2022-08-19T02:38:44;95480.84;;;21.54;71.66
46456;BME280;32154;47.160;8.120;2022-08-19T02:43:57;95479.44;;;21.52;70.30
46456;BME280;32154;47.160;8.120;2022-08-19T02:49:21;95494.47;;;21.59;70.57
46456;BME280;32154;47.160;8.120;2022-08-19T02:54:24;95500.03;;;21.58;71.28
46456;BME280;32154;47.160;8.120;2022-08-19T02:59:29;95496.97;;;21.61;71.77
46456;BME280;32154;47.160;8.120;2022-08-19T03:04:32;95494.09;;;21.42;71.98
46456;BME280;32154;47.160;8.120;2022-08-19T03:09:37;95490.19;;;21.38;72.72
46456;BME280;32154;47.160;8.120;2022-08-19T03:20:06;95486.25;;;22.20;69.82
46456;BME280;32154;47.160;8.120;2022-08-19T03:25:18;95486.75;;;22.56;68.97
46456;BME280;32154;47.160;8.120;2022-08-19T03:30:20;95493.59;;;22.84;67.83
46456;BME280;32154;47.160;8.120;2022-08-19T03:35:25;95494.69;;;22.30;68.22
46456;BME280;32154;47.160;8.120;2022-08-19T03:40:46;95491.41;;;22.22;68.99
46456;BME280;32154;47.160;8.120;2022-08-19T03:45:49;95499.59;;;21.95;69.67
46456;BME280;32154;47.160;8.120;2022-08-19T03:50:51;95498.16;;;21.85;70.54
46456;BME280;32154;47.160;8.120;2022-08-19T03:55:55;95498.13;;;21.99;70.99
46456;BME280;32154;47.160;8.120;2022-08-19T04:00:58;95499.13;;;22.04;70.75
46456;BME280;32154;47.160;8.120;2022-08-19T04:11:15;95505.88;;;22.21;70.11
46456;BME280;32154;47.160;8.120;2022-08-19T04:16:22;95504.66;;;22.10;70.15
46456;BME280;32154;47.160;8.120;2022-08-19T04:21:36;95510.84;;;22.17;69.94
46456;BME280;32154;47.160;8.120;2022-08-19T04:26:40;95516.81;;;22.19;69.35
46456;BME280;32154;47.160;8.120;2022-08-19T04:31:44;95524.50;;;22.09;69.47
46456;BME280;32154;47.160;8.120;2022-08-19T04:36:50;95526.84;;;21.98;69.79
46456;BME280;32154;47.160;8.120;2022-08-19T04:41:54;95523.53;;;21.83;70.44
46456;BME280;32154;47.160;8.120;2022-08-19T04:46:57;95520.88;;;21.56;70.08
46456;BME280;32154;47.160;8.120;2022-08-19T04:52:00;95529.78;;;21.70;71.01
46456;BME280;32154;47.160;8.120;2022-08-19T04:57:51;95532.22;;;21.51;72.19
46456;BME280;32154;47.160;8.120;2022-08-19T05:02:54;95560.50;;;21.54;71.68
46456;BME280;32154;47.160;8.120;2022-08-19T05:07:56;95570.63;;;21.79;70.67
46456;BME280;32154;47.160;8.120;2022-08-19T05:12:59;95576.19;;;21.57;71.29
46456;BME280;32154;47.160;8.120;2022-08-19T05:18:02;95560.31;;;21.48;71.57
46456;BME280;32154;47.160;8.120;2022-08-19T05:23:31;95562.16;;;21.21;72.89
46456;BME280;32154;47.160;8.120;2022-08-19T05:28:34;95572.28;;;21.80;71.09
46456;BME280;32154;47.160;8.120;2022-08-19T05:33:37;95564.22;;;21.86;70.61
46456;BME280;32154;47.160;8.120;2022-08-19T05:45:41;95589.94;;;22.21;70.08
46456;BME280;32154;47.160;8.120;2022-08-19T05:50:43;95595.72;;;22.18;69.96
46456;BME280;32154;47.160;8.120;2022-08-19T05:55:45;95602.34;;;22.29;69.41
46456;BME280;32154;47.160;8.120;2022-08-19T06:00:48;95600.44;;;22.29;69.17
46456;BME280;32154;47.160;8.120;2022-08-19T06:05:51;95598.81;;;22.28;70.39
46456;BME280;32154;47.160;8.120;2022-08-19T06:16:18;95600.97;;;21.93;71.01
46456;BME280;32154;47.160;8.120;2022-08-19T06:21:23;95587.72;;;21.98;70.48
46456;BME280;32154;47.160;8.120;2022-08-19T06:26:55;95590.16;;;22.20;69.13
46456;BME280;32154;47.160;8.120;2022-08-19T06:32:21;95601.28;;;22.30;70.13
46456;BME280;32154;47.160;8.120;2022-08-19T06:37:24;95592.25;;;22.11;70.61
46456;BME280;32154;47.160;8.120;2022-08-19T06:42:26;95596.13;;;22.28;70.60
46456;BME280;32154;47.160;8.120;2022-08-19T06:47:31;95602.13;;;22.17;70.59
46456;BME280;32154;47.160;8.120;2022-08-19T06:52:52;95617.66;;;22.08;69.44
46456;BME280;32154;47.160;8.120;2022-08-19T06:57:55;95615.72;;;22.42;68.89
46456;BME280;32154;47.160;8.120;2022-08-19T07:02:58;95619.44;;;22.28;66.63
46456;BME280;32154;47.160;8.120;2022-08-19T07:08:05;95628.53;;;22.33;68.32
46456;BME280;32154;47.160;8.120;2022-08-19T07:13:26;95632.66;;;22.36;67.98
46456;BME280;32154;47.160;8.120;2022-08-19T07:18:29;95638.53;;;21.86;69.25
46456;BME280;32154;47.160;8.120;2022-08-19T07:23:32;95631.91;;;21.95;69.04
46456;BME280;32154;47.160;8.120;2022-08-19T07:28:36;95624.03;;;21.40;69.13
46456;BME280;32154;47.160;8.120;2022-08-19T07:33:48;95640.13;;;21.40;69.63
46456;BME280;32154;47.160;8.120;2022-08-19T07:39:28;95629.84;;;22.11;67.90
46456;BME280;32154;47.160;8.120;2022-08-19T07:44:31;95649.25;;;21.72;68.45
46456;BME280;32154;47.160;8.120;2022-08-19T07:49:54;95642.44;;;21.97;69.70
46456;BME280;32154;47.160;8.120;2022-08-19T07:54:56;95649.66;;;21.96;69.90
46456;BME280;32154;47.160;8.120;2022-08-19T07:59:58;95659.75;;;22.14;69.22
46456;BME280;32154;47.160;8.120;2022-08-19T08:05:01;95664.88;;;22.56;69.66
46456;BME280;32154;47.160;8.120;2022-08-19T08:10:07;95664.47;;;22.59;67.52
46456;BME280;32154;47.160;8.120;2022-08-19T08:15:40;95671.88;;;22.64;68.80
46456;BME280;32154;47.160;8.120;2022-08-19T08:20:48;95679.91;;;22.71;68.35
46456;BME280;32154;47.160;8.120;2022-08-19T08:25:57;95684.28;;;22.72;68.37
46456;BME280;32154;47.160;8.120;2022-08-19T08:31:01;95687.56;;;22.74;65.43
46456;BME280;32154;47.160;8.120;2022-08-19T08:36:11;95696.44;;;22.74;67.10
46456;BME280;32154;47.160;8.120;2022-08-19T08:41:50;95706.59;;;22.66;68.83
46456;BME280;32154;47.160;8.120;2022-08-19T08:46:58;95714.09;;;22.30;67.78
46456;BME280;32154;47.160;8.120;2022-08-19T08:52:15;95712.44;;;22.29;68.56
46456;BME280;32154;47.160;8.120;2022-08-19T09:02:55;95718.41;;;22.31;69.25
46456;BME280;32154;47.160;8.120;2022-08-19T09:14:00;95738.03;;;22.31;68.94
46456;BME280;32154;47.160;8.120;2022-08-19T09:19:28;95734.72;;;22.43;66.78
46456;BME280;32154;47.160;8.120;2022-08-19T09:24:30;95745.28;;;22.58;69.44
46456;BME280;32154;47.160;8.120;2022-08-19T09:29:33;95745.66;;;22.35;68.61
46456;BME280;32154;47.160;8.120;2022-08-19T09:34:36;95748.31;;;21.67;69.29
46456;BME280;32154;47.160;8.120;2022-08-19T09:39:45;95753.31;;;21.90;71.03
46456;BME280;32154;47.160;8.120;2022-08-19T09:44:50;95761.16;;;22.06;67.74
46456;BME280;32154;47.160;8.120;2022-08-19T09:49:53;95764.09;;;22.51;68.53
46456;BME280;32154;47.160;8.120;2022-08-19T09:55:16;95775.84;;;22.37;69.25
46456;BME280;32154;47.160;8.120;2022-08-19T10:00:37;95775.25;;;22.62;69.25
46456;BME280;32154;47.160;8.120;2022-08-19T10:06:03;95773.09;;;22.97;68.39
46456;BME280;32154;47.160;8.120;2022-08-19T10:11:16;95779.47;;;23.03;67.31
46456;BME280;32154;47.160;8.120;2022-08-19T10:16:56;95779.22;;;23.18;67.15
46456;BME280;32154;47.160;8.120;2022-08-19T10:22:02;95773.41;;;23.28;67.21
46456;BME280;32154;47.160;8.120;2022-08-19T10:27:05;95771.78;;;23.27;67.05
46456;BME280;32154;47.160;8.120;2022-08-19T10:32:28;95773.41;;;23.28;67.31
46456;BME280;32154;47.160;8.120;2022-08-19T10:37:53;95778.06;;;22.87;69.33
46456;BME280;32154;47.160;8.120;2022-08-19T10:43:20;95780.16;;;22.78;69.35
46456;BME280;32154;47.160;8.120;2022-08-19T10:48:24;95792.03;;;23.23;67.09
46456;BME280;32154;47.160;8.120;2022-08-19T10:53:28;95786.72;;;22.96;65.66
46456;BME280;32154;47.160;8.120;2022-08-19T10:58:51;95797.72;;;22.94;70.06
46456;BME280;32154;47.160;8.120;2022-08-19T11:04:13;95787.38;;;22.98;67.49
46456;BME280;32154;47.160;8.120;2022-08-19T11:09:21;95787.44;;;23.37;68.20
46456;BME280;32154;47.160;8.120;2022-08-19T11:14:25;95779.69;;;23.61;69.67
46456;BME280;32154;47.160;8.120;2022-08-19T11:19:34;95784.84;;;23.62;69.11
46456;BME280;32154;47.160;8.120;2022-08-19T11:24:36;95783.38;;;23.66;68.92
46456;BME280;32154;47.160;8.120;2022-08-19T11:29:39;95784.03;;;23.62;64.06
46456;BME280;32154;47.160;8.120;2022-08-19T11:34:42;95789.28;;;23.82;67.16
46456;BME280;32154;47.160;8.120;2022-08-19T11:39:44;95790.47;;;23.54;66.24
46456;BME280;32154;47.160;8.120;2022-08-19T11:44:55;95785.31;;;23.59;69.56
46456;BME280;32154;47.160;8.120;2022-08-19T11:49:58;95799.56;;;23.60;66.29
46456;BME280;32154;47.160;8.120;2022-08-19T11:55:00;95797.69;;;23.01;65.24
46456;BME280;32154;47.160;8.120;2022-08-19T12:00:04;95806.88;;;23.39;69.13
46456;BME280;32154;47.160;8.120;2022-08-19T12:05:08;95803.69;;;23.62;68.17
46456;BME280;32154;47.160;8.120;2022-08-19T12:10:13;95810.44;;;23.26;67.06
46456;BME280;32154;47.160;8.120;2022-08-19T12:15:19;95805.94;;;23.06;68.39
46456;BME280;32154;47.160;8.120;2022-08-19T12:20:42;95805.91;;;23.13;68.50
46456;BME280;32154;47.160;8.120;2022-08-19T12:25:47;95798.25;;;23.16;68.21
46456;BME280;32154;47.160;8.120;2022-08-19T12:30:52;95797.66;;;23.08;68.17
46456;BME280;32154;47.160;8.120;2022-08-19T12:36:00;95804.75;;;22.88;69.17
46456;BME280;32154;47.160;8.120;2022-08-19T12:41:24;95799.38;;;22.35;70.57
46456;BME280;32154;47.160;8.120;2022-08-19T12:46:26;95804.97;;;22.33;71.01
46456;BME280;32154;47.160;8.120;2022-08-19T12:51:28;95815.31;;;22.70;70.76
46456;BME280;32154;47.160;8.120;2022-08-19T12:56:31;95819.53;;;23.38;65.90
46456;BME280;32154;47.160;8.120;2022-08-19T13:01:40;95823.47;;;23.22;68.11
46456;BME280;32154;47.160;8.120;2022-08-19T13:06:43;95825.16;;;23.16;67.50
46456;BME280;32154;47.160;8.120;2022-08-19T13:11:46;95823.03;;;23.39;63.88
46456;BME280;32154;47.160;8.120;2022-08-19T13:17:07;95824.69;;;23.47;66.58
46456;BME280;32154;47.160;8.120;2022-08-19T13:22:09;95835.09;;;23.75;67.78
46456;BME280;32154;47.160;8.120;2022-08-19T13:27:35;95832.47;;;23.62;67.70
46456;BME280;32154;47.160;8.120;2022-08-19T13:32:37;95824.75;;;23.72;65.14
46456;BME280;32154;47.160;8.120;2022-08-19T13:37:43;95824.53;;;23.80;66.43
46456;BME280;32154;47.160;8.120;2022-08-19T13:42:47;95831.94;;;23.85;65.09
46456;BME280;32154;47.160;8.120;2022-08-19T13:48:08;95838.63;;;23.76;64.09
46456;BME280;32154;47.160;8.120;2022-08-19T13:53:11;95838.84;;;23.67;64.83
46456;BME280;32154;47.160;8.120;2022-08-19T13:58:15;95841.56;;;23.67;63.36
46456;BME280;32154;47.160;8.120;2022-08-19T14:03:38;95843.97;;;23.82;66.17
46456;BME280;32154;47.160;8.120;2022-08-19T14:08:40;95848.22;;;23.51;64.30
46456;BME280;32154;47.160;8.120;2022-08-19T14:13:48;95850.59;;;23.80;65.16
46456;BME280;32154;47.160;8.120;2022-08-19T14:19:09;95851.00;;;23.83;66.24
46456;BME280;32154;47.160;8.120;2022-08-19T14:24:12;95849.97;;;24.23;64.44
46456;BME280;32154;47.160;8.120;2022-08-19T14:29:15;95847.00;;;23.99;62.19
46456;BME280;32154;47.160;8.120;2022-08-19T14:34:22;95854.75;;;23.82;63.79
46456;BME280;32154;47.160;8.120;2022-08-19T14:39:43;95850.91;;;24.04;62.28
46456;BME280;32154;47.160;8.120;2022-08-19T14:44:46;95855.88;;;24.07;63.24
46456;BME280;32154;47.160;8.120;2022-08-19T14:49:49;95856.06;;;24.12;66.23
46456;BME280;32154;47.160;8.120;2022-08-19T14:55:17;95857.41;;;23.89;62.09
46456;BME280;32154;47.160;8.120;2022-08-19T15:00:21;95857.53;;;24.01;64.38
46456;BME280;32154;47.160;8.120;2022-08-19T15:05:26;95856.59;;;23.82;63.16
46456;BME280;32154;47.160;8.120;2022-08-19T15:10:28;95857.69;;;23.67;62.62
46456;BME280;32154;47.160;8.120;2022-08-19T15:15:31;95864.16;;;23.60;62.89
46456;BME280;32154;47.160;8.120;2022-08-19T15:20:53;95866.75;;;23.80;64.19
46456;BME280;32154;47.160;8.120;2022-08-19T15:26:02;95861.13;;;23.88;63.21
46456;BME280;32154;47.160;8.120;2022-08-19T15:31:06;95861.69;;;24.04;65.75
46456;BME280;32154;47.160;8.120;2022-08-19T15:36:19;95865.97;;;23.72;63.67
46456;BME280;32154;47.160;8.120;2022-08-19T15:41:27;95855.53;;;23.37;65.51
46456;BME280;32154;47.160;8.120;2022-08-19T15:46:32;95866.09;;;23.32;65.07
46456;BME280;32154;47.160;8.120;2022-08-19T15:51:39;95869.75;;;23.51;65.73
46456;BME280;32154;47.160;8.120;2022-08-19T15:56:42;95874.25;;;23.71;66.40
46456;BME280;32154;47.160;8.120;2022-08-19T16:01:45;95868.09;;;23.57;66.62
46456;BME280;32154;47.160;8.120;2022-08-19T16:07:16;95870.56;;;24.11;65.02
46456;BME280;32154;47.160;8.120;2022-08-19T16:12:43;95871.56;;;23.71;66.06
46456;BME280;32154;47.160;8.120;2022-08-19T16:17:47;95876.66;;;23.93;65.42
46456;BME280;32154;47.160;8.120;2022-08-19T16:22:58;95876.28;;;23.82;63.91
46456;BME280;32154;47.160;8.120;2022-08-19T16:28:03;95875.00;;;23.39;64.77
46456;BME280;32154;47.160;8.120;2022-08-19T16:33:09;95877.16;;;23.69;64.58
46456;BME280;32154;47.160;8.120;2022-08-19T16:38:11;95890.94;;;23.41;63.48
46456;BME280;32154;47.160;8.120;2022-08-19T16:43:15;95887.22;;;23.22;65.72
46456;BME280;32154;47.160;8.120;2022-08-19T16:48:19;95907.72;;;23.09;65.87
46456;BME280;32154;47.160;8.120;2022-08-19T16:53:23;95904.22;;;22.68;64.78
46456;BME280;32154;47.160;8.120;2022-08-19T16:58:30;95914.53;;;22.51;65.39
46456;BME280;32154;47.160;8.120;2022-08-19T17:03:34;95916.50;;;22.22;65.89
46456;BME280;32154;47.160;8.120;2022-08-19T17:08:59;95919.38;;;22.07;65.99
46456;BME280;32154;47.160;8.120;2022-08-19T17:14:03;95927.56;;;21.85;68.56
46456;BME280;32154;47.160;8.120;2022-08-19T17:19:25;95930.09;;;22.00;69.16
46456;BME280;32154;47.160;8.120;2022-08-19T17:24:28;95930.44;;;21.90;68.29
46456;BME280;32154;47.160;8.120;2022-08-19T17:29:32;95929.78;;;21.75;68.10
46456;BME280;32154;47.160;8.120;2022-08-19T17:34:34;95930.25;;;21.92;69.35
46456;BME280;32154;47.160;8.120;2022-08-19T17:39:37;95933.75;;;21.15;71.59
46456;BME280;32154;47.160;8.120;2022-08-19T17:44:40;95936.22;;;21.52;72.22
46456;BME280;32154;47.160;8.120;2022-08-19T17:49:45;95936.91;;;21.26;71.79
46456;BME280;32154;47.160;8.120;2022-08-19T17:54:48;95926.22;;;21.32;69.42
46456;BME280;32154;47.160;8.120;2022-08-19T18:00:15;95927.44;;;21.30;70.51
46456;BME280;32154;47.160;8.120;2022-08-19T18:05:24;95922.53;;;21.05;69.22
46456;BME280;32154;47.160;8.120;2022-08-19T18:10:30;95934.69;;;21.01;70.71
46456;BME280;32154;47.160;8.120;2022-08-19T18:15:55;95937.91;;;21.18;67.89
46456;BME280;32154;47.160;8.120;2022-08-19T18:20:58;95962.78;;;21.12;70.39
46456;BME280;32154;47.160;8.120;2022-08-19T18:26:01;95957.34;;;21.27;70.82
46456;BME280;32154;47.160;8.120;2022-08-19T18:31:09;95962.75;;;21.33;70.91
46456;BME280;32154;47.160;8.120;2022-08-19T18:36:19;95963.13;;;20.36;70.00
46456;BME280;32154;47.160;8.120;2022-08-19T18:41:42;95966.47;;;20.82;70.37
46456;BME280;32154;47.160;8.120;2022-08-19T18:46:45;95963.28;;;20.94;68.76
46456;BME280;32154;47.160;8.120;2022-08-19T18:51:48;95977.50;;;21.23;71.31
46456;BME280;32154;47.160;8.120;2022-08-19T18:56:50;95985.91;;;21.13;70.01
46456;BME280;32154;47.160;8.120;2022-08-19T19:01:54;95991.72;;;20.95;68.73
46456;BME280;32154;47.160;8.120;2022-08-19T19:06:57;95995.16;;;21.10;69.30
46456;BME280;32154;47.160;8.120;2022-08-19T19:12:04;96003.22;;;20.88;70.21
46456;BME280;32154;47.160;8.120;2022-08-19T19:17:12;96011.69;;;20.70;69.89
46456;BME280;32154;47.160;8.120;2022-08-19T19:22:18;96013.97;;;20.15;72.09
46456;BME280;32154;47.160;8.120;2022-08-19T19:27:40;96006.56;;;20.32;71.58
46456;BME280;32154;47.160;8.120;2022-08-19T19:33:00;96004.13;;;20.00;70.69
46456;BME280;32154;47.160;8.120;2022-08-19T19:38:04;96002.31;;;20.22;72.20
46456;BME280;32154;47.160;8.120;2022-08-19T19:43:06;95995.31;;;20.06;70.64
46456;BME280;32154;47.160;8.120;2022-08-19T19:48:10;95997.13;;;20.21;71.75
46456;BME280;32154;47.160;8.120;2022-08-19T19:53:12;95994.69;;;20.04;71.29
46456;BME280;32154;47.160;8.120;2022-08-19T19:58:15;96006.34;;;20.33;70.58
46456;BME280;32154;47.160;8.120;2022-08-19T20:03:24;96012.19;;;20.22;71.63
46456;BME280;32154;47.160;8.120;2022-08-19T20:08:46;96017.63;;;20.66;72.15
46456;BME280;32154;47.160;8.120;2022-08-19T20:14:27;96015.81;;;20.51;72.14
46456;BME280;32154;47.160;8.120;2022-08-19T20:19:31;96022.34;;;20.63;71.83
46456;BME280;32154;47.160;8.120;2022-08-19T20:24:35;96024.66;;;20.52;72.42
46456;BME280;32154;47.160;8.120;2022-08-19T20:29:37;96027.50;;;20.65;71.01
46456;BME280;32154;47.160;8.120;2022-08-19T20:34:45;96035.97;;;20.69;71.02
46456;BME280;32154;47.160;8.120;2022-08-19T20:39:47;96027.34;;;20.52;71.70
46456;BME280;32154;47.160;8.120;2022-08-19T20:44:50;96029.56;;;20.48;72.28
46456;BME280;32154;47.160;8.120;2022-08-19T20:50:12;96033.72;;;20.50;72.31
46456;BME280;32154;47.160;8.120;2022-08-19T20:55:15;96022.81;;;20.74;71.91
46456;BME280;32154;47.160;8.120;2022-08-19T21:00:20;96033.47;;;20.82;72.41
46456;BME280;32154;47.160;8.120;2022-08-19T21:05:22;96030.66;;;20.90;72.59
46456;BME280;32154;47.160;8.120;2022-08-19T21:10:50;96032.56;;;20.97;70.40
46456;BME280;32154;47.160;8.120;2022-08-19T21:16:13;96028.19;;;20.74;70.59
46456;BME280;32154;47.160;8.120;2022-08-19T21:21:16;96029.53;;;20.63;72.28
46456;BME280;32154;47.160;8.120;2022-08-19T21:26:19;96033.47;;;20.82;71.22
46456;BME280;32154;47.160;8.120;2022-08-19T21:31:22;96035.50;;;21.02;70.97
46456;BME280;32154;47.160;8.120;2022-08-19T21:36:43;96034.28;;;21.04;69.92
46456;BME280;32154;47.160;8.120;2022-08-19T21:41:46;96028.69;;;20.99;70.34
46456;BME280;32154;47.160;8.120;2022-08-19T21:46:48;96026.06;;;21.06;69.90
46456;BME280;32154;47.160;8.120;2022-08-19T21:51:51;96024.91;;;21.15;69.59
46456;BME280;32154;47.160;8.120;2022-08-19T21:56:53;96033.47;;;20.82;70.09
46456;BME280;32154;47.160;8.120;2022-08-19T22:01:57;96024.28;;;20.91;69.93
46456;BME280;32154;47.160;8.120;2022-08-19T22:07:42;96028.19;;;20.52;70.25
46456;BME280;32154;47.160;8.120;2022-08-19T22:12:44;96023.91;;;20.21;70.72
46456;BME280;32154;47.160;8.120;2022-08-19T22:17:53;96023.81;;;20.29;69.83
46456;BME280;32154;47.160;8.120;2022-08-19T22:22:59;96028.16;;;20.30;70.50
46456;BME280;32154;47.160;8.120;2022-08-19T22:28:04;96025.78;;;20.42;68.72
46456;BME280;32154;47.160;8.120;2022-08-19T22:33:16;96019.13;;;20.16;69.95
46456;BME280;32154;47.160;8.120;2022-08-19T22:38:18;96019.16;;;20.01;71.72
46456;BME280;32154;47.160;8.120;2022-08-19T22:43:24;96025.66;;;19.84;70.92
46456;BME280;32154;47.160;8.120;2022-08-19T22:48:46;96025.88;;;19.67;70.94
46456;BME280;32154;47.160;8.120;2022-08-19T22:54:03;96021.53;;;19.66;72.51
46456;BME280;32154;47.160;8.120;2022-08-19T22:59:07;96022.09;;;19.61;70.82
46456;BME280;32154;47.160;8.120;2022-08-19T23:04:11;96021.72;;;19.79;70.56
46456;BME280;32154;47.160;8.120;2022-08-19T23:09:13;96017.91;;;19.59;70.38
46456;BME280;32154;47.160;8.120;2022-08-19T23:14:21;96013.22;;;19.61;69.84
46456;BME280;32154;47.160;8.120;2022-08-19T23:19:46;96011.91;;;19.87;68.93
46456;BME280;32154;47.160;8.120;2022-08-19T23:25:18;95998.00;;;19.61;69.62
46456;BME280;32154;47.160;8.120;2022-08-19T23:30:20;96006.13;;;19.83;69.43
46456;BME280;32154;47.160;8.120;2022-08-19T23:35:24;96006.22;;;19.90;70.47
46456;BME280;32154;47.160;8.120;2022-08-19T23:40:48;95996.44;;;19.82;68.71
46456;BME280;32154;47.160;8.120;2022-08-19T23:45:51;95991.91;;;19.67;69.13
46456;BME280;32154;47.160;8.120;2022-08-19T23:50:54;96000.31;;;19.79;68.23
46456;BME280;32154;47.160;8.120;2022-08-19T23:55:57;95995.97;;;19.63;69.65
